createdAt,value
2018-11-21T00:00:39.212Z,0
2018-11-21T00:01:49.371Z,0
2018-11-21T00:02:59.240Z,0
2018-11-21T00:04:08.855Z,0
2018-11-21T00:05:18.745Z,0
2018-11-21T00:06:28.357Z,0
2018-11-21T00:07:38.505Z,0
2018-11-21T00:08:48.104Z,0
2018-11-21T00:09:57.985Z,0
2018-11-21T00:11:07.919Z,0
2018-11-21T00:12:18.068Z,0
2018-11-21T00:13:28.227Z,0
2018-11-21T00:14:38.107Z,0
2018-11-21T00:15:48.043Z,0
2018-11-21T00:16:58.207Z,0
2018-11-21T00:18:07.809Z,0
2018-11-21T00:19:17.958Z,0
2018-11-21T00:20:28.110Z,0
2018-11-21T00:21:37.987Z,0
2018-11-21T00:22:48.130Z,0
2018-11-21T00:23:58.278Z,0
2018-11-21T00:25:08.445Z,0
2018-11-21T00:26:18.387Z,0
2018-11-21T00:27:28.545Z,0
2018-11-21T00:28:38.433Z,0
2018-11-21T00:29:48.595Z,0
2018-11-21T00:30:58.759Z,0
2018-11-21T00:32:08.642Z,0
2018-11-21T00:33:18.791Z,0
2018-11-21T00:34:28.945Z,0
2018-11-21T00:35:39.097Z,0
2018-11-21T00:36:48.697Z,0
2018-11-21T00:37:58.574Z,0
2018-11-21T00:39:08.732Z,0
2018-11-21T00:40:18.884Z,0
2018-11-21T00:41:28.773Z,0
2018-11-21T00:42:38.378Z,0
2018-11-21T00:43:54.358Z,0
2018-11-21T00:45:04.241Z,0
2018-11-21T00:46:14.403Z,0
2018-11-21T00:47:24.564Z,0
2018-11-21T00:48:34.171Z,0
2018-11-21T00:49:44.061Z,0
2018-11-21T00:50:53.942Z,0
2018-11-21T00:52:04.101Z,0
2018-11-21T00:53:13.705Z,0
2018-11-21T00:54:23.865Z,0
2018-11-21T00:55:34.021Z,0
2018-11-21T00:56:43.905Z,0
2018-11-21T00:57:54.062Z,0
2018-11-21T00:59:04.212Z,0
2018-11-21T01:00:14.148Z,0
2018-11-21T01:01:24.045Z,0
2018-11-21T01:02:34.209Z,0
2018-11-21T01:03:44.366Z,0
2018-11-21T01:04:54.248Z,0
2018-11-21T01:06:04.130Z,0
2018-11-21T01:07:14.286Z,0
2018-11-21T01:08:24.446Z,0
2018-11-21T01:09:34.595Z,0
2018-11-21T01:10:44.480Z,0
2018-11-21T01:11:54.361Z,0
2018-11-21T01:13:04.513Z,0
2018-11-21T01:14:14.665Z,0
2018-11-21T01:15:24.546Z,0
2018-11-21T01:16:34.429Z,0
2018-11-21T01:17:44.315Z,0
2018-11-21T01:18:54.210Z,0
2018-11-21T01:20:04.366Z,0
2018-11-21T01:21:14.260Z,0
2018-11-21T01:22:24.142Z,0
2018-11-21T01:23:34.304Z,0
2018-11-21T01:24:44.183Z,0
2018-11-21T01:25:54.063Z,0
2018-11-21T01:27:04.273Z,0
2018-11-21T01:28:14.157Z,0
2018-11-21T01:29:24.044Z,0
2018-11-21T01:30:33.651Z,0
2018-11-21T01:31:43.806Z,0
2018-11-21T01:32:54.021Z,0
2018-11-21T01:34:03.911Z,0
2018-11-21T01:35:14.067Z,0
2018-11-21T01:36:23.677Z,0
2018-11-21T01:37:33.833Z,0
2018-11-21T01:38:43.985Z,0
2018-11-21T01:39:54.139Z,0
2018-11-21T01:41:04.298Z,0
2018-11-21T01:42:14.478Z,0
2018-11-21T01:43:24.358Z,0
2018-11-21T01:44:34.233Z,0
2018-11-21T01:45:44.118Z,0
2018-11-21T01:46:54.011Z,0
2018-11-21T01:48:03.624Z,0
2018-11-21T01:49:13.520Z,0
2018-11-21T01:50:23.406Z,0
2018-11-21T01:51:33.287Z,0
2018-11-21T01:52:43.460Z,0
2018-11-21T01:53:53.341Z,0
2018-11-21T01:55:03.492Z,0
2018-11-21T01:56:13.704Z,0
2018-11-21T01:57:23.865Z,0
2018-11-21T01:58:34.017Z,0
2018-11-21T01:59:44.175Z,0
2018-11-21T02:00:54.333Z,0
2018-11-21T02:02:04.214Z,0
2018-11-21T02:03:14.097Z,0
2018-11-21T02:04:24.280Z,0
2018-11-21T02:05:34.168Z,0
2018-11-21T02:06:44.063Z,0
2018-11-21T02:07:54.206Z,0
2018-11-21T02:09:04.095Z,0
2018-11-21T02:10:14.258Z,0
2018-11-21T02:11:24.131Z,0
2018-11-21T02:12:34.010Z,0
2018-11-21T02:13:43.631Z,0
2018-11-21T02:14:53.866Z,0
2018-11-21T02:16:04.023Z,0
2018-11-21T02:17:13.894Z,0
2018-11-21T02:18:24.055Z,0
2018-11-21T02:19:33.928Z,0
2018-11-21T02:20:44.085Z,0
2018-11-21T02:21:53.692Z,0
2018-11-21T02:23:03.846Z,0
2018-11-21T02:24:14.005Z,0
2018-11-21T02:25:23.928Z,0
2018-11-21T02:26:34.087Z,0
2018-11-21T02:27:43.700Z,0
2018-11-21T02:28:53.856Z,0
2018-11-21T02:30:03.733Z,0
2018-11-21T02:31:13.957Z,0
2018-11-21T02:32:24.119Z,0
2018-11-21T02:33:33.998Z,0
2018-11-21T02:34:44.163Z,0
2018-11-21T02:35:54.048Z,0
2018-11-21T02:37:04.209Z,0
2018-11-21T02:38:14.090Z,0
2018-11-21T02:39:24.252Z,0
2018-11-21T02:40:34.392Z,0
2018-11-21T02:41:44.555Z,0
2018-11-21T02:42:54.746Z,0
2018-11-21T02:44:04.635Z,0
2018-11-21T02:45:14.799Z,0
2018-11-21T02:46:24.688Z,0
2018-11-21T02:47:34.289Z,0
2018-11-21T02:48:44.169Z,0
2018-11-21T02:49:53.779Z,0
2018-11-21T02:51:03.390Z,0
2018-11-21T02:52:13.555Z,0
2018-11-21T02:53:23.708Z,0
2018-11-21T02:54:33.876Z,0
2018-11-21T02:55:44.048Z,0
2018-11-21T02:56:53.939Z,0
2018-11-21T02:58:03.814Z,0
2018-11-21T02:59:13.699Z,0
2018-11-21T03:00:23.913Z,0
2018-11-21T03:01:34.062Z,0
2018-11-21T03:02:44.216Z,0
2018-11-21T03:03:54.374Z,0
2018-11-21T03:05:04.556Z,0
2018-11-21T03:06:14.763Z,0
2018-11-21T03:07:24.913Z,0
2018-11-21T03:08:35.069Z,0
2018-11-21T03:09:45.222Z,0
2018-11-21T03:10:55.382Z,0
2018-11-21T03:12:05.553Z,0
2018-11-21T03:13:15.714Z,0
2018-11-21T03:14:25.652Z,0
2018-11-21T03:15:35.546Z,0
2018-11-21T03:16:45.692Z,0
2018-11-21T03:17:55.572Z,0
2018-11-21T03:19:05.720Z,0
2018-11-21T03:20:15.874Z,0
2018-11-21T03:21:25.493Z,0
2018-11-21T03:22:35.654Z,0
2018-11-21T03:23:45.854Z,0
2018-11-21T03:24:56.011Z,0
2018-11-21T03:26:06.201Z,0
2018-11-21T03:27:16.142Z,0
2018-11-21T03:28:26.339Z,0
2018-11-21T03:29:36.221Z,0
2018-11-21T03:30:46.387Z,0
2018-11-21T03:31:56.636Z,0
2018-11-21T03:33:06.534Z,0
2018-11-21T03:34:16.696Z,0
2018-11-21T03:35:26.644Z,0
2018-11-21T03:36:36.536Z,0
2018-11-21T03:37:46.694Z,0
2018-11-21T03:38:56.848Z,0
2018-11-21T03:40:06.737Z,0
2018-11-21T03:41:16.936Z,0
2018-11-21T03:42:26.544Z,0
2018-11-21T03:43:36.433Z,0
2018-11-21T03:44:46.587Z,0
2018-11-21T03:45:55.922Z,0
2018-11-21T03:47:05.806Z,0
2018-11-21T03:48:15.949Z,0
2018-11-21T03:49:26.105Z,0
2018-11-21T03:50:35.995Z,0
2018-11-21T03:51:45.884Z,0
2018-11-21T03:52:55.771Z,0
2018-11-21T03:54:05.663Z,0
2018-11-21T03:55:15.862Z,0
2018-11-21T03:56:25.748Z,0
2018-11-21T03:57:35.922Z,0
2018-11-21T03:58:46.090Z,0
2018-11-21T03:59:55.706Z,0
2018-11-21T04:01:05.315Z,0
2018-11-21T04:02:15.484Z,0
2018-11-21T04:03:25.369Z,0
2018-11-21T04:04:35.260Z,0
2018-11-21T04:05:45.157Z,0
2018-11-21T04:06:54.497Z,0
2018-11-21T04:08:04.653Z,0
2018-11-21T04:09:14.002Z,0
2018-11-21T04:10:23.658Z,0
2018-11-21T04:11:33.551Z,0
2018-11-21T04:12:43.714Z,0
2018-11-21T04:13:53.599Z,0
2018-11-21T04:15:03.757Z,0
2018-11-21T04:16:13.683Z,0
2018-11-21T04:17:23.567Z,0
2018-11-21T04:18:33.720Z,0
2018-11-21T04:19:43.876Z,0
2018-11-21T04:20:53.759Z,0
2018-11-21T04:22:03.658Z,0
2018-11-21T04:23:13.551Z,0
2018-11-21T04:24:23.719Z,0
2018-11-21T04:25:33.876Z,0
2018-11-21T04:26:44.039Z,0
2018-11-21T04:27:54.201Z,0
2018-11-21T04:29:04.092Z,0
2018-11-21T04:30:13.974Z,0
2018-11-21T04:31:23.853Z,0
2018-11-21T04:32:33.200Z,0
2018-11-21T04:33:43.405Z,0
2018-11-21T04:34:53.604Z,0
2018-11-21T04:36:03.225Z,0
2018-11-21T04:37:13.104Z,0
2018-11-21T04:38:22.991Z,0
2018-11-21T04:39:33.169Z,0
2018-11-21T04:40:43.327Z,0
2018-11-21T04:41:53.477Z,0
2018-11-21T04:43:03.641Z,0
2018-11-21T04:44:13.799Z,0
2018-11-21T04:45:23.965Z,0
2018-11-21T04:46:33.846Z,0
2018-11-21T04:47:44.006Z,0
2018-11-21T04:48:54.164Z,0
2018-11-21T04:50:04.328Z,0
2018-11-21T04:51:14.223Z,0
2018-11-21T04:52:24.108Z,0
2018-11-21T04:53:33.999Z,0
2018-11-21T04:54:44.163Z,0
2018-11-21T04:55:54.331Z,0
2018-11-21T04:57:04.480Z,0
2018-11-21T04:58:14.640Z,0
2018-11-21T04:59:24.520Z,0
2018-11-21T05:00:34.406Z,0
2018-11-21T05:01:44.281Z,0
2018-11-21T05:02:54.208Z,0
2018-11-21T05:04:03.823Z,0
2018-11-21T05:05:13.978Z,0
2018-11-21T05:06:24.128Z,0
2018-11-21T05:07:34.290Z,0
2018-11-21T05:08:44.446Z,0
2018-11-21T05:09:54.331Z,0
2018-11-21T05:11:04.541Z,0
2018-11-21T05:12:14.436Z,0
2018-11-21T05:13:24.592Z,0
2018-11-21T05:14:34.473Z,0
2018-11-21T05:15:44.091Z,0
2018-11-21T05:16:54.268Z,0
2018-11-21T05:18:03.876Z,0
2018-11-21T05:19:14.027Z,0
2018-11-21T05:20:23.921Z,0
2018-11-21T05:21:34.085Z,0
2018-11-21T05:22:44.249Z,0
2018-11-21T05:23:54.408Z,0
2018-11-21T05:25:03.756Z,0
2018-11-21T05:26:13.645Z,0
2018-11-21T05:27:23.801Z,0
2018-11-21T05:28:33.955Z,0
2018-11-21T05:29:43.287Z,0
2018-11-21T05:30:53.162Z,0
2018-11-21T05:32:02.773Z,0
2018-11-21T05:33:12.674Z,0
2018-11-21T05:34:22.560Z,0
2018-11-21T05:35:32.722Z,0
2018-11-21T05:36:42.601Z,0
2018-11-21T05:37:52.761Z,0
2018-11-21T05:39:02.639Z,0
2018-11-21T05:40:12.522Z,0
2018-11-21T05:41:22.404Z,0
2018-11-21T05:42:32.554Z,0
2018-11-21T05:43:42.439Z,0
2018-11-21T05:44:51.790Z,0
2018-11-21T05:46:01.957Z,0
2018-11-21T05:47:11.858Z,0
2018-11-21T05:48:21.743Z,0
2018-11-21T05:49:31.125Z,0
2018-11-21T05:50:41.009Z,0
2018-11-21T05:51:50.888Z,0
2018-11-21T05:53:00.762Z,0
2018-11-21T05:54:10.368Z,0
2018-11-21T05:55:20.246Z,0
2018-11-21T05:56:29.853Z,0
2018-11-21T05:57:40.009Z,0
2018-11-21T05:58:49.892Z,0
2018-11-21T06:00:00.062Z,0
2018-11-21T06:01:10.231Z,0
2018-11-21T06:02:20.382Z,0
2018-11-21T06:03:30.530Z,0
2018-11-21T06:04:40.140Z,0
2018-11-21T06:05:50.298Z,0
2018-11-21T06:06:59.961Z,0
2018-11-21T06:08:10.107Z,0
2018-11-21T06:09:19.992Z,0
2018-11-21T06:10:29.887Z,0
2018-11-21T06:11:39.774Z,0
2018-11-21T06:12:49.933Z,0
2018-11-21T06:14:00.096Z,0
2018-11-21T06:15:09.713Z,0
2018-11-21T06:16:19.863Z,0
2018-11-21T06:17:30.042Z,0
2018-11-21T06:18:40.199Z,0
2018-11-21T06:19:50.083Z,0
2018-11-21T06:20:59.417Z,0
2018-11-21T06:22:09.611Z,0
2018-11-21T06:23:19.818Z,4
2018-11-21T06:24:29.704Z,0
2018-11-21T06:25:39.590Z,0
2018-11-21T06:26:49.756Z,4
2018-11-21T06:27:59.637Z,4
2018-11-21T06:29:09.801Z,4
2018-11-21T06:30:19.962Z,4
2018-11-21T06:31:29.844Z,4
2018-11-21T06:32:40.017Z,8
2018-11-21T06:33:49.911Z,8
2018-11-21T06:35:00.080Z,8
2018-11-21T06:36:10.245Z,12
2018-11-21T06:37:20.129Z,12
2018-11-21T06:38:30.355Z,16
2018-11-21T06:39:40.504Z,16
2018-11-21T06:40:50.381Z,20
2018-11-21T06:42:00.274Z,24
2018-11-21T06:43:10.436Z,32
2018-11-21T06:44:20.049Z,36
2018-11-21T06:45:29.385Z,40
2018-11-21T06:46:39.547Z,48
2018-11-21T06:47:49.154Z,56
2018-11-21T06:48:59.037Z,60
2018-11-21T06:50:08.924Z,68
2018-11-21T06:51:18.809Z,76
2018-11-21T06:52:29.585Z,84
2018-11-21T06:53:39.733Z,92
2018-11-21T06:54:49.610Z,104
2018-11-21T06:55:59.762Z,112
2018-11-21T06:57:09.379Z,128
2018-11-21T06:58:19.046Z,140
2018-11-21T06:59:29.200Z,148
2018-11-21T07:00:38.810Z,160
2018-11-21T07:01:48.698Z,172
2018-11-21T07:02:58.588Z,180
2018-11-21T07:04:08.534Z,192
2018-11-21T07:05:18.711Z,204
2018-11-21T07:06:28.862Z,224
2018-11-21T07:07:39.017Z,228
2018-11-21T07:08:49.174Z,244
2018-11-21T07:09:59.331Z,264
2018-11-21T07:11:09.500Z,288
2018-11-21T07:12:19.664Z,312
2018-11-21T07:13:29.820Z,336
2018-11-21T07:14:39.986Z,360
2018-11-21T07:15:50.136Z,372
2018-11-21T07:16:59.748Z,396
2018-11-21T07:18:09.636Z,416
2018-11-21T07:19:19.800Z,432
2018-11-21T07:20:29.689Z,452
2018-11-21T07:21:39.344Z,472
2018-11-21T07:22:49.225Z,492
2018-11-21T07:23:58.839Z,524
2018-11-21T07:25:08.449Z,544
2018-11-21T07:26:18.636Z,572
2018-11-21T07:27:28.530Z,604
2018-11-21T07:28:38.406Z,620
2018-11-21T07:29:48.563Z,632
2018-11-21T07:30:58.443Z,636
2018-11-21T07:32:08.603Z,632
2018-11-21T07:33:18.763Z,660
2018-11-21T07:34:28.944Z,688
2018-11-21T07:35:39.154Z,752
2018-11-21T07:36:49.310Z,760
2018-11-21T07:37:58.931Z,792
2018-11-21T07:39:08.819Z,816
2018-11-21T07:40:18.972Z,804
2018-11-21T07:41:29.133Z,812
2018-11-21T07:42:39.301Z,872
2018-11-21T07:43:49.462Z,840
2018-11-21T07:44:59.623Z,892
2018-11-21T07:46:09.535Z,864
2018-11-21T07:47:19.442Z,888
2018-11-21T07:48:34.075Z,828
2018-11-21T07:49:44.224Z,828
2018-11-21T07:50:54.373Z,840
2018-11-21T07:52:09.982Z,832
2018-11-21T07:53:19.862Z,908
2018-11-21T07:54:30.017Z,836
2018-11-21T07:55:39.629Z,916
2018-11-21T07:56:49.792Z,908
2018-11-21T07:57:59.396Z,916
2018-11-21T07:59:09.616Z,992
2018-11-21T08:00:19.497Z,1028
2018-11-21T08:01:29.407Z,1012
2018-11-21T08:02:39.603Z,1080
2018-11-21T08:03:49.211Z,1172
2018-11-21T08:04:59.359Z,1136
2018-11-21T08:06:09.514Z,1156
2018-11-21T08:07:19.681Z,1168
2018-11-21T08:08:29.842Z,1208
2018-11-21T08:09:40.005Z,1180
2018-11-21T08:10:49.605Z,1288
2018-11-21T08:11:59.759Z,1320
2018-11-21T08:13:09.419Z,1408
2018-11-21T08:14:19.573Z,1384
2018-11-21T08:15:29.459Z,1452
2018-11-21T08:16:39.623Z,1492
2018-11-21T08:17:49.827Z,1548
2018-11-21T08:18:59.701Z,1360
2018-11-21T08:20:09.314Z,1468
2018-11-21T08:21:19.202Z,1532
2018-11-21T08:22:29.362Z,1572
2018-11-21T08:23:38.973Z,1624
2018-11-21T08:24:49.122Z,1560
2018-11-21T08:25:59.272Z,1572
2018-11-21T08:27:09.437Z,1740
2018-11-21T08:28:19.041Z,1676
2018-11-21T08:29:28.929Z,1692
2018-11-21T08:30:38.809Z,1988
2018-11-21T08:31:48.688Z,2040
2018-11-21T08:32:58.571Z,1908
2018-11-21T08:34:08.459Z,1964
2018-11-21T08:35:18.630Z,2076
2018-11-21T08:36:28.792Z,1972
2018-11-21T08:37:38.677Z,2116
2018-11-21T08:38:48.573Z,1824
2018-11-21T08:39:58.736Z,2292
2018-11-21T08:41:08.620Z,2264
2018-11-21T08:42:18.505Z,2144
2018-11-21T08:43:28.451Z,2260
2018-11-21T08:44:38.617Z,2348
2018-11-21T08:45:48.495Z,2608
2018-11-21T08:46:58.656Z,2404
2018-11-21T08:48:08.813Z,2392
2018-11-21T08:49:18.974Z,2312
2018-11-21T08:50:29.127Z,2416
2018-11-21T08:51:39.009Z,2388
2018-11-21T08:52:48.904Z,2496
2018-11-21T08:53:58.786Z,2740
2018-11-21T08:55:13.913Z,2772
2018-11-21T08:56:23.803Z,2796
2018-11-21T08:57:33.686Z,2704
2018-11-21T08:58:43.855Z,2868
2018-11-21T08:59:54.012Z,2736
2018-11-21T09:01:04.169Z,2832
2018-11-21T09:02:14.328Z,2680
2018-11-21T09:03:24.484Z,3096
2018-11-21T09:04:34.641Z,3140
2018-11-21T09:05:44.798Z,3156
2018-11-21T09:06:54.725Z,3032
2018-11-21T09:08:04.344Z,3304
2018-11-21T09:09:14.516Z,3292
2018-11-21T09:10:24.680Z,3376
2018-11-21T09:11:34.844Z,3324
2018-11-21T09:12:44.731Z,3352
2018-11-21T09:13:58.166Z,3304
2018-11-21T09:15:08.436Z,3236
2018-11-21T09:16:18.593Z,3304
2018-11-21T09:17:28.470Z,3480
2018-11-21T09:18:38.640Z,3240
2018-11-21T09:19:48.533Z,3008
2018-11-21T09:20:58.691Z,3284
2018-11-21T09:22:08.586Z,3604
2018-11-21T09:23:18.473Z,3660
2018-11-21T09:24:28.632Z,3688
2018-11-21T09:25:38.788Z,3548
2018-11-21T09:26:48.950Z,3576
2018-11-21T09:27:59.161Z,3892
2018-11-21T09:29:09.321Z,3564
2018-11-21T09:30:19.479Z,3716
2018-11-21T09:31:29.643Z,3420
2018-11-21T09:32:39.257Z,3420
2018-11-21T09:33:49.429Z,3160
2018-11-21T09:34:59.592Z,3424
2018-11-21T09:36:09.764Z,3640
2018-11-21T09:37:19.921Z,3540
2018-11-21T09:38:29.804Z,3316
2018-11-21T09:39:39.687Z,3448
2018-11-21T09:40:49.571Z,3604
2018-11-21T09:41:59.456Z,3552
2018-11-21T09:43:09.341Z,3584
2018-11-21T09:44:19.518Z,3844
2018-11-21T09:45:29.677Z,3760
2018-11-21T09:46:39.561Z,3800
2018-11-21T09:47:49.720Z,3884
2018-11-21T09:48:59.375Z,3524
2018-11-21T09:50:08.993Z,3604
2018-11-21T09:51:19.155Z,3604
2018-11-21T09:52:29.313Z,3408
2018-11-21T09:53:39.196Z,3088
2018-11-21T09:54:49.350Z,3040
2018-11-21T09:55:59.515Z,2960
2018-11-21T09:57:08.928Z,3248
2018-11-21T09:58:18.817Z,3472
2018-11-21T09:59:28.706Z,3472
2018-11-21T10:00:38.869Z,3624
2018-11-21T10:01:49.040Z,4092
2018-11-21T10:02:58.645Z,4136
2018-11-21T10:04:08.858Z,4236
2018-11-21T10:05:18.748Z,4244
2018-11-21T10:06:28.639Z,3772
2018-11-21T10:07:38.809Z,3932
2018-11-21T10:08:48.468Z,4028
2018-11-21T10:09:58.352Z,4176
2018-11-21T10:11:08.240Z,4112
2018-11-21T10:12:17.859Z,4020
2018-11-21T10:13:27.750Z,3992
2018-11-21T10:14:37.914Z,4128
2018-11-21T10:15:47.524Z,4020
2018-11-21T10:16:57.413Z,3884
2018-11-21T10:18:07.583Z,4408
2018-11-21T10:19:17.750Z,4804
2018-11-21T10:20:27.635Z,4384
2018-11-21T10:21:37.532Z,4488
2018-11-21T10:22:47.415Z,4072
2018-11-21T10:23:57.584Z,4272
2018-11-21T10:25:07.755Z,3924
2018-11-21T10:26:17.649Z,4620
2018-11-21T10:27:27.263Z,4468
2018-11-21T10:28:37.160Z,4040
2018-11-21T10:29:47.324Z,4496
2018-11-21T10:30:57.479Z,4640
2018-11-21T10:32:07.638Z,4060
2018-11-21T10:33:17.526Z,4196
2018-11-21T10:34:27.686Z,4448
2018-11-21T10:35:40.892Z,4808
2018-11-21T10:36:51.064Z,4364
2018-11-21T10:38:00.677Z,4144
2018-11-21T10:39:10.846Z,4052
2018-11-21T10:40:20.736Z,3636
2018-11-21T10:41:30.930Z,3996
2018-11-21T10:42:40.815Z,3676
2018-11-21T10:43:50.472Z,3792
2018-11-21T10:45:00.626Z,3792
2018-11-21T10:46:10.789Z,4232
2018-11-21T10:47:20.957Z,4304
2018-11-21T10:48:31.114Z,4056
2018-11-21T10:49:41.047Z,3608
2018-11-21T10:50:51.208Z,3756
2018-11-21T10:52:01.364Z,3764
2018-11-21T10:53:11.518Z,3708
2018-11-21T10:54:21.404Z,3480
2018-11-21T10:55:31.290Z,3836
2018-11-21T10:56:40.907Z,3832
2018-11-21T10:57:51.063Z,3832
2018-11-21T10:59:01.219Z,3584
2018-11-21T11:00:11.381Z,3752
2018-11-21T11:01:21.602Z,3492
2018-11-21T11:02:31.766Z,3332
2018-11-21T11:03:41.657Z,3372
2018-11-21T11:04:51.553Z,3252
2018-11-21T11:06:01.725Z,3392
2018-11-21T11:07:11.889Z,3376
2018-11-21T11:08:22.054Z,3444
2018-11-21T11:09:31.947Z,3272
2018-11-21T11:10:42.118Z,3556
2018-11-21T11:11:52.005Z,3500
2018-11-21T11:13:01.891Z,3512
2018-11-21T11:14:12.060Z,3728
2018-11-21T11:15:22.218Z,3780
2018-11-21T11:16:32.109Z,3592
2018-11-21T11:17:42.265Z,3432
2018-11-21T11:18:52.488Z,3500
2018-11-21T11:20:02.655Z,3504
2018-11-21T11:21:16.625Z,3344
2018-11-21T11:22:26.782Z,3580
2018-11-21T11:23:36.673Z,3608
2018-11-21T11:24:46.560Z,3784
2018-11-21T11:25:56.721Z,3864
2018-11-21T11:27:06.335Z,3772
2018-11-21T11:28:19.542Z,3620
2018-11-21T11:29:29.432Z,3608
2018-11-21T11:30:39.594Z,3780
2018-11-21T11:31:49.751Z,3348
2018-11-21T11:32:59.641Z,3296
2018-11-21T11:34:09.809Z,3208
2018-11-21T11:35:19.687Z,3344
2018-11-21T11:36:29.894Z,3840
2018-11-21T11:37:40.054Z,4352
2018-11-21T11:38:49.938Z,3980
2018-11-21T11:40:00.096Z,3860
2018-11-21T11:41:10.249Z,3756
2018-11-21T11:42:20.459Z,4084
2018-11-21T11:43:30.615Z,3900
2018-11-21T11:44:40.502Z,3548
2018-11-21T11:45:50.670Z,3304
2018-11-21T11:47:00.557Z,3228
2018-11-21T11:48:10.711Z,3016
2018-11-21T11:49:20.873Z,3312
2018-11-21T11:50:30.757Z,3332
2018-11-21T11:51:40.651Z,3228
2018-11-21T11:52:50.807Z,3000
2018-11-21T11:54:00.696Z,3080
2018-11-21T11:55:10.861Z,3264
2018-11-21T11:56:20.747Z,3536
2018-11-21T11:57:30.638Z,3576
2018-11-21T11:58:40.257Z,3648
2018-11-21T11:59:50.412Z,3384
2018-11-21T12:01:00.300Z,3460
2018-11-21T12:02:13.350Z,3392
2018-11-21T12:03:23.342Z,3536
2018-11-21T12:04:33.224Z,3476
2018-11-21T12:05:43.117Z,3368
2018-11-21T12:06:52.995Z,3288
2018-11-21T12:08:02.604Z,3132
2018-11-21T12:09:12.771Z,3232
2018-11-21T12:10:22.944Z,3304
2018-11-21T12:11:32.553Z,3484
2018-11-21T12:12:47.528Z,3688
2018-11-21T12:13:57.414Z,3800
2018-11-21T12:15:07.295Z,3640
2018-11-21T12:16:17.179Z,3576
2018-11-21T12:17:27.062Z,3484
2018-11-21T12:18:37.229Z,3432
2018-11-21T12:19:47.121Z,3272
2018-11-21T12:20:57.284Z,3044
2018-11-21T12:22:07.435Z,2912
2018-11-21T12:23:18.261Z,2728
2018-11-21T12:24:28.418Z,2712
2018-11-21T12:25:38.580Z,2708
2018-11-21T12:26:48.195Z,2716
2018-11-21T12:27:58.079Z,2764
2018-11-21T12:29:08.298Z,2804
2018-11-21T12:30:18.184Z,3104
2018-11-21T12:31:28.365Z,2940
2018-11-21T12:32:43.796Z,2792
2018-11-21T12:33:53.676Z,2800
2018-11-21T12:35:03.581Z,2664
2018-11-21T12:36:13.477Z,2688
2018-11-21T12:37:23.652Z,2920
2018-11-21T12:38:33.541Z,2708
2018-11-21T12:39:42.886Z,2728
2018-11-21T12:40:52.773Z,2732
2018-11-21T12:42:02.929Z,2624
2018-11-21T12:43:18.126Z,2668
2018-11-21T12:44:27.742Z,2704
2018-11-21T12:45:37.897Z,2660
2018-11-21T12:46:47.777Z,2824
2018-11-21T12:47:57.936Z,2924
2018-11-21T12:49:08.095Z,2596
2018-11-21T12:50:18.249Z,2584
2018-11-21T12:51:28.142Z,2388
2018-11-21T12:52:38.313Z,2292
2018-11-21T12:53:48.475Z,2324
2018-11-21T12:54:58.362Z,2280
2018-11-21T12:56:07.970Z,2328
2018-11-21T12:57:17.851Z,2236
2018-11-21T12:58:28.068Z,2260
2018-11-21T12:59:38.058Z,2292
2018-11-21T13:00:48.040Z,2280
2018-11-21T13:01:58.194Z,2212
2018-11-21T13:03:08.423Z,2200
2018-11-21T13:04:18.873Z,2296
2018-11-21T13:05:28.784Z,2552
2018-11-21T13:06:38.670Z,2348
2018-11-21T13:07:48.831Z,2224
2018-11-21T13:08:58.717Z,2208
2018-11-21T13:10:08.935Z,2564
2018-11-21T13:11:18.825Z,2956
2018-11-21T13:12:28.809Z,3080
2018-11-21T13:13:38.702Z,2856
2018-11-21T13:14:48.915Z,2772
2018-11-21T13:15:58.852Z,2288
2018-11-21T13:17:08.844Z,1864
2018-11-21T13:18:19.001Z,1756
2018-11-21T13:19:29.207Z,1740
2018-11-21T13:20:39.107Z,1932
2018-11-21T13:21:49.044Z,2216
2018-11-21T13:22:58.932Z,2332
2018-11-21T13:24:08.548Z,2380
2018-11-21T13:25:18.441Z,2324
2018-11-21T13:26:28.604Z,2472
2018-11-21T13:27:38.217Z,2552
2018-11-21T13:28:47.830Z,2764
2018-11-21T13:29:57.714Z,2936
2018-11-21T13:31:07.621Z,2856
2018-11-21T13:32:17.497Z,2640
2018-11-21T13:33:27.651Z,2656
2018-11-21T13:34:37.541Z,2600
2018-11-21T13:35:47.750Z,2436
2018-11-21T13:36:57.633Z,2444
2018-11-21T13:38:07.517Z,2316
2018-11-21T13:39:17.673Z,2460
2018-11-21T13:40:27.833Z,2300
2018-11-21T13:41:37.993Z,2380
2018-11-21T13:42:47.617Z,2288
2018-11-21T13:43:57.501Z,1948
2018-11-21T13:45:07.391Z,1740
2018-11-21T13:46:17.281Z,1548
2018-11-21T13:47:27.175Z,1556
2018-11-21T13:48:37.331Z,1528
2018-11-21T13:49:47.488Z,1504
2018-11-21T13:50:57.643Z,1412
2018-11-21T13:52:07.532Z,1444
2018-11-21T13:53:17.688Z,1620
2018-11-21T13:54:27.850Z,1732
2018-11-21T13:55:38.006Z,1536
2018-11-21T13:56:48.165Z,1488
2018-11-21T13:57:57.780Z,1472
2018-11-21T13:59:07.665Z,1644
2018-11-21T14:00:17.829Z,1664
2018-11-21T14:01:27.994Z,1692
2018-11-21T14:02:38.149Z,1908
2018-11-21T14:03:48.313Z,1796
2018-11-21T14:04:58.201Z,1968
2018-11-21T14:06:08.359Z,1916
2018-11-21T14:07:18.526Z,1860
2018-11-21T14:08:28.712Z,2064
2018-11-21T14:09:38.608Z,1988
2018-11-21T14:10:48.772Z,1864
2018-11-21T14:11:58.657Z,1788
2018-11-21T14:13:08.829Z,1508
2018-11-21T14:14:18.439Z,1532
2018-11-21T14:15:28.863Z,1592
2018-11-21T14:16:38.524Z,1636
2018-11-21T14:17:48.675Z,1688
2018-11-21T14:18:58.843Z,1524
2018-11-21T14:20:08.744Z,1556
2018-11-21T14:21:18.902Z,1584
2018-11-21T14:22:28.798Z,1472
2018-11-21T14:23:38.693Z,1672
2018-11-21T14:24:48.862Z,1872
2018-11-21T14:25:58.759Z,1688
2018-11-21T14:27:08.653Z,1788
2018-11-21T14:28:18.538Z,1864
2018-11-21T14:29:28.695Z,1708
2018-11-21T14:30:38.311Z,1596
2018-11-21T14:31:48.195Z,1620
2018-11-21T14:32:58.083Z,1680
2018-11-21T14:34:08.249Z,1556
2018-11-21T14:35:18.146Z,1460
2018-11-21T14:36:28.303Z,1352
2018-11-21T14:37:37.912Z,1300
2018-11-21T14:38:47.795Z,1352
2018-11-21T14:39:57.946Z,1380
2018-11-21T14:41:07.837Z,1288
2018-11-21T14:42:18.070Z,1164
2018-11-21T14:43:27.954Z,1052
2018-11-21T14:44:37.837Z,956
2018-11-21T14:45:47.775Z,936
2018-11-21T14:46:57.667Z,904
2018-11-21T14:48:07.547Z,844
2018-11-21T14:49:17.705Z,772
2018-11-21T14:50:27.866Z,696
2018-11-21T14:51:37.486Z,648
2018-11-21T14:52:47.652Z,628
2018-11-21T14:53:57.811Z,612
2018-11-21T14:55:07.976Z,596
2018-11-21T14:56:18.142Z,584
2018-11-21T14:57:28.020Z,564
2018-11-21T14:58:37.911Z,540
2018-11-21T14:59:48.066Z,524
2018-11-21T15:00:58.228Z,508
2018-11-21T15:02:08.142Z,504
2018-11-21T15:03:23.162Z,496
2018-11-21T15:04:33.312Z,484
2018-11-21T15:05:43.193Z,468
2018-11-21T15:06:53.076Z,448
2018-11-21T15:08:02.958Z,408
2018-11-21T15:09:13.171Z,352
2018-11-21T15:10:23.338Z,328
2018-11-21T15:11:33.501Z,312
2018-11-21T15:12:43.661Z,300
2018-11-21T15:13:53.540Z,280
2018-11-21T15:15:03.425Z,260
2018-11-21T15:16:13.583Z,248
2018-11-21T15:17:23.734Z,236
2018-11-21T15:18:33.621Z,224
2018-11-21T15:19:43.774Z,220
2018-11-21T15:20:53.933Z,216
2018-11-21T15:22:04.090Z,208
2018-11-21T15:23:14.248Z,196
2018-11-21T15:24:24.133Z,184
2018-11-21T15:25:33.740Z,176
2018-11-21T15:26:43.946Z,160
2018-11-21T15:27:54.105Z,148
2018-11-21T15:29:03.714Z,136
2018-11-21T15:30:13.864Z,120
2018-11-21T15:31:24.027Z,108
2018-11-21T15:32:33.919Z,100
2018-11-21T15:33:43.250Z,84
2018-11-21T15:34:53.179Z,72
2018-11-21T15:36:03.061Z,64
2018-11-21T15:37:12.954Z,56
2018-11-21T15:38:22.291Z,52
2018-11-21T15:39:32.172Z,40
2018-11-21T15:40:46.863Z,36
2018-11-21T15:41:57.252Z,32
2018-11-21T15:43:07.131Z,24
2018-11-21T15:44:17.079Z,20
2018-11-21T15:45:27.243Z,12
2018-11-21T15:46:37.127Z,12
2018-11-21T15:47:46.737Z,8
2018-11-21T15:48:56.898Z,8
2018-11-21T15:50:06.796Z,4
2018-11-21T15:51:16.397Z,4
2018-11-21T15:52:26.281Z,4
2018-11-21T15:53:36.511Z,4
2018-11-21T15:54:46.385Z,4
2018-11-21T15:55:56.304Z,4
2018-11-21T15:57:06.462Z,0
2018-11-21T15:58:16.348Z,4
2018-11-21T15:59:26.516Z,4
2018-11-21T16:00:36.396Z,0
2018-11-21T16:01:46.288Z,0
2018-11-21T16:02:55.939Z,0
2018-11-21T16:04:06.096Z,0
2018-11-21T16:05:15.995Z,0
2018-11-21T16:06:26.158Z,0
2018-11-21T16:07:36.045Z,0
2018-11-21T16:08:46.197Z,0
2018-11-21T16:09:56.193Z,0
2018-11-21T16:11:06.079Z,0
2018-11-21T16:12:16.240Z,0
2018-11-21T16:13:25.580Z,0
2018-11-21T16:14:35.734Z,0
2018-11-21T16:15:45.898Z,0
2018-11-21T16:16:56.050Z,0
2018-11-21T16:18:06.207Z,0
2018-11-21T16:19:16.366Z,0
2018-11-21T16:20:26.557Z,0
2018-11-21T16:21:36.724Z,0